DFW Airport, Texas
Current Conditions -  °F | °C
As of 1:53 AM on Saturday 29 Nov 2014 (Local Time) from KDFW Reporting Station
Scattered Clouds Scattered Clouds  
Wind Chill: 55°   Ceiling: Unl
Heat Index: 55°   Visibility: 10mi
Dew Point: 46°   Wind: 13mph
Humidity: 72%   Direction: 180°S
Pressure: 29.95"   Gusts: NA
Location:  32.9°N, 97.03°W
Report Text: KDFW 290753Z 18011KT 10SM SCT300 13/08 A2995 RMK AO2 SLP137 T01280078
Loading
Personal Weather Stations






























Interactive Weather Map New forecast layout! Learn more

10-Day Weather Forecast

Advertisements
Track Severe Weather on mobile